sensor_id;sensor_type;location;lat;lon;timestamp;P1;durP1;ratioP1;P2;durP2;ratioP2
13238;SDS011;6686;51.292;4.166;2022-09-09T00:04:29;7.87;;;3.07;;
13238;SDS011;6686;51.292;4.166;2022-09-09T00:07:23;5.30;;;2.30;;
13238;SDS011;6686;51.292;4.166;2022-09-09T00:10:20;3.90;;;2.30;;
13238;SDS011;6686;51.292;4.166;2022-09-09T00:13:05;5.03;;;2.50;;
13238;SDS011;6686;51.292;4.166;2022-09-09T00:21:38;4.00;;;2.70;;
13238;SDS011;6686;51.292;4.166;2022-09-09T00:24:28;9.50;;;3.70;;
13238;SDS011;6686;51.292;4.166;2022-09-09T00:30:27;5.57;;;2.70;;
13238;SDS011;6686;51.292;4.166;2022-09-09T00:33:12;4.63;;;2.80;;
13238;SDS011;6686;51.292;4.166;2022-09-09T00:35:58;6.50;;;2.83;;
13238;SDS011;6686;51.292;4.166;2022-09-09T00:38:55;6.17;;;3.13;;
13238;SDS011;6686;51.292;4.166;2022-09-09T00:44:37;5.67;;;2.90;;
13238;SDS011;6686;51.292;4.166;2022-09-09T00:50:48;6.30;;;2.80;;
13238;SDS011;6686;51.292;4.166;2022-09-09T00:56:47;4.40;;;2.60;;
13238;SDS011;6686;51.292;4.166;2022-09-09T00:59:47;5.17;;;2.57;;
13238;SDS011;6686;51.292;4.166;2022-09-09T01:02:39;5.17;;;2.40;;
13238;SDS011;6686;51.292;4.166;2022-09-09T01:11:51;5.43;;;2.73;;
13238;SDS011;6686;51.292;4.166;2022-09-09T01:14:47;5.33;;;2.30;;
13238;SDS011;6686;51.292;4.166;2022-09-09T01:17:41;5.80;;;2.60;;
13238;SDS011;6686;51.292;4.166;2022-09-09T01:29:11;4.67;;;2.17;;
13238;SDS011;6686;51.292;4.166;2022-09-09T01:31:57;4.30;;;2.00;;
13238;SDS011;6686;51.292;4.166;2022-09-09T01:34:41;3.80;;;2.10;;
13238;SDS011;6686;51.292;4.166;2022-09-09T01:37:27;2.60;;;2.00;;
13238;SDS011;6686;51.292;4.166;2022-09-09T01:40:13;3.27;;;2.20;;
13238;SDS011;6686;51.292;4.166;2022-09-09T01:42:59;4.90;;;2.30;;
13238;SDS011;6686;51.292;4.166;2022-09-09T01:45:44;6.23;;;2.50;;
13238;SDS011;6686;51.292;4.166;2022-09-09T01:48:31;3.30;;;2.00;;
13238;SDS011;6686;51.292;4.166;2022-09-09T01:51:17;3.97;;;1.93;;
13238;SDS011;6686;51.292;4.166;2022-09-09T01:54:03;4.23;;;2.20;;
13238;SDS011;6686;51.292;4.166;2022-09-09T01:59:49;2.03;;;1.70;;
13238;SDS011;6686;51.292;4.166;2022-09-09T02:02:36;4.23;;;2.00;;
13238;SDS011;6686;51.292;4.166;2022-09-09T02:08:34;4.70;;;2.03;;
13238;SDS011;6686;51.292;4.166;2022-09-09T02:11:18;3.83;;;2.07;;
13238;SDS011;6686;51.292;4.166;2022-09-09T02:14:08;5.70;;;1.67;;
13238;SDS011;6686;51.292;4.166;2022-09-09T02:17:01;5.67;;;2.10;;
13238;SDS011;6686;51.292;4.166;2022-09-09T02:19:49;3.73;;;1.93;;
13238;SDS011;6686;51.292;4.166;2022-09-09T02:22:31;4.70;;;1.70;;
13238;SDS011;6686;51.292;4.166;2022-09-09T02:25:18;4.87;;;2.03;;
13238;SDS011;6686;51.292;4.166;2022-09-09T02:28:06;5.63;;;2.10;;
13238;SDS011;6686;51.292;4.166;2022-09-09T02:30:52;3.07;;;1.90;;
13238;SDS011;6686;51.292;4.166;2022-09-09T02:33:41;4.80;;;2.00;;
13238;SDS011;6686;51.292;4.166;2022-09-09T02:36:24;3.93;;;1.90;;
13238;SDS011;6686;51.292;4.166;2022-09-09T02:39:10;5.87;;;2.10;;
13238;SDS011;6686;51.292;4.166;2022-09-09T02:41:56;4.50;;;1.93;;
13238;SDS011;6686;51.292;4.166;2022-09-09T02:44:42;6.10;;;2.37;;
13238;SDS011;6686;51.292;4.166;2022-09-09T02:50:26;6.55;;;2.50;;
13238;SDS011;6686;51.292;4.166;2022-09-09T02:53:16;5.40;;;2.63;;
13238;SDS011;6686;51.292;4.166;2022-09-09T02:56:08;6.83;;;2.43;;
13238;SDS011;6686;51.292;4.166;2022-09-09T02:58:51;7.77;;;2.40;;
13238;SDS011;6686;51.292;4.166;2022-09-09T03:01:37;9.30;;;2.60;;
13238;SDS011;6686;51.292;4.166;2022-09-09T03:04:23;4.93;;;2.27;;
13238;SDS011;6686;51.292;4.166;2022-09-09T03:07:10;8.70;;;4.30;;
13238;SDS011;6686;51.292;4.166;2022-09-09T03:09:56;5.67;;;2.70;;
13238;SDS011;6686;51.292;4.166;2022-09-09T03:12:42;6.23;;;2.73;;
13238;SDS011;6686;51.292;4.166;2022-09-09T03:15:28;4.87;;;2.57;;
13238;SDS011;6686;51.292;4.166;2022-09-09T03:18:14;6.00;;;2.27;;
13238;SDS011;6686;51.292;4.166;2022-09-09T03:21:00;4.77;;;2.40;;
13238;SDS011;6686;51.292;4.166;2022-09-09T03:23:49;4.77;;;2.23;;
13238;SDS011;6686;51.292;4.166;2022-09-09T03:26:32;6.60;;;2.37;;
13238;SDS011;6686;51.292;4.166;2022-09-09T03:29:18;6.93;;;2.53;;
13238;SDS011;6686;51.292;4.166;2022-09-09T03:32:04;4.43;;;2.30;;
13238;SDS011;6686;51.292;4.166;2022-09-09T03:34:50;3.97;;;2.50;;
13238;SDS011;6686;51.292;4.166;2022-09-09T03:37:36;7.70;;;2.47;;
13238;SDS011;6686;51.292;4.166;2022-09-09T03:40:22;5.87;;;2.47;;
13238;SDS011;6686;51.292;4.166;2022-09-09T03:43:08;6.30;;;2.90;;
13238;SDS011;6686;51.292;4.166;2022-09-09T03:45:54;6.70;;;2.90;;
13238;SDS011;6686;51.292;4.166;2022-09-09T03:48:43;9.87;;;2.60;;
13238;SDS011;6686;51.292;4.166;2022-09-09T03:51:29;6.33;;;2.40;;
13238;SDS011;6686;51.292;4.166;2022-09-09T03:54:15;7.00;;;2.60;;
13238;SDS011;6686;51.292;4.166;2022-09-09T03:57:00;9.07;;;2.70;;
13238;SDS011;6686;51.292;4.166;2022-09-09T03:59:46;6.43;;;2.70;;
13238;SDS011;6686;51.292;4.166;2022-09-09T04:02:32;7.80;;;2.93;;
13238;SDS011;6686;51.292;4.166;2022-09-09T04:05:18;4.90;;;2.70;;
13238;SDS011;6686;51.292;4.166;2022-09-09T04:08:04;7.83;;;3.40;;
13238;SDS011;6686;51.292;4.166;2022-09-09T04:10:50;8.33;;;2.80;;
13238;SDS011;6686;51.292;4.166;2022-09-09T04:13:36;7.33;;;2.70;;
13238;SDS011;6686;51.292;4.166;2022-09-09T04:16:24;7.03;;;2.60;;
13238;SDS011;6686;51.292;4.166;2022-09-09T04:19:11;8.00;;;2.70;;
13238;SDS011;6686;51.292;4.166;2022-09-09T04:21:57;11.17;;;2.90;;
13238;SDS011;6686;51.292;4.166;2022-09-09T04:24:42;7.67;;;2.80;;
13238;SDS011;6686;51.292;4.166;2022-09-09T04:27:28;6.17;;;2.73;;
13238;SDS011;6686;51.292;4.166;2022-09-09T04:30:14;5.40;;;2.50;;
13238;SDS011;6686;51.292;4.166;2022-09-09T04:33:00;9.60;;;2.70;;
13238;SDS011;6686;51.292;4.166;2022-09-09T04:35:47;10.57;;;2.80;;
13238;SDS011;6686;51.292;4.166;2022-09-09T04:38:32;7.43;;;2.83;;
13238;SDS011;6686;51.292;4.166;2022-09-09T04:41:18;10.43;;;2.90;;
13238;SDS011;6686;51.292;4.166;2022-09-09T04:44:04;11.60;;;3.00;;
13238;SDS011;6686;51.292;4.166;2022-09-09T04:46:50;8.37;;;2.90;;
13238;SDS011;6686;51.292;4.166;2022-09-09T04:49:36;5.83;;;2.73;;
13238;SDS011;6686;51.292;4.166;2022-09-09T04:52:22;9.45;;;3.00;;
13238;SDS011;6686;51.292;4.166;2022-09-09T04:55:08;6.82;;;2.87;;
13238;SDS011;6686;51.292;4.166;2022-09-09T04:57:54;7.53;;;2.83;;
13238;SDS011;6686;51.292;4.166;2022-09-09T05:00:39;9.07;;;2.80;;
13238;SDS011;6686;51.292;4.166;2022-09-09T05:03:26;11.47;;;3.40;;
13238;SDS011;6686;51.292;4.166;2022-09-09T05:06:13;8.20;;;2.60;;
13238;SDS011;6686;51.292;4.166;2022-09-09T05:08:58;10.37;;;2.90;;
13238;SDS011;6686;51.292;4.166;2022-09-09T05:11:43;11.37;;;3.37;;
13238;SDS011;6686;51.292;4.166;2022-09-09T05:14:29;11.87;;;3.07;;
13238;SDS011;6686;51.292;4.166;2022-09-09T05:17:16;8.38;;;3.22;;
13238;SDS011;6686;51.292;4.166;2022-09-09T05:20:01;7.50;;;2.80;;
13238;SDS011;6686;51.292;4.166;2022-09-09T05:22:48;8.50;;;3.17;;
13238;SDS011;6686;51.292;4.166;2022-09-09T05:25:34;8.37;;;3.10;;
13238;SDS011;6686;51.292;4.166;2022-09-09T05:28:19;7.43;;;2.73;;
13238;SDS011;6686;51.292;4.166;2022-09-09T05:31:06;9.43;;;2.93;;
13238;SDS011;6686;51.292;4.166;2022-09-09T05:33:54;14.57;;;3.50;;
13238;SDS011;6686;51.292;4.166;2022-09-09T05:36:40;12.63;;;3.37;;
13238;SDS011;6686;51.292;4.166;2022-09-09T05:39:26;7.33;;;2.83;;
13238;SDS011;6686;51.292;4.166;2022-09-09T05:42:11;11.63;;;3.03;;
13238;SDS011;6686;51.292;4.166;2022-09-09T05:44:57;6.53;;;2.87;;
13238;SDS011;6686;51.292;4.166;2022-09-09T05:47:44;4.43;;;2.53;;
13238;SDS011;6686;51.292;4.166;2022-09-09T05:50:30;9.13;;;2.83;;
13238;SDS011;6686;51.292;4.166;2022-09-09T05:53:15;6.37;;;2.90;;
13238;SDS011;6686;51.292;4.166;2022-09-09T05:56:02;8.53;;;3.00;;
13238;SDS011;6686;51.292;4.166;2022-09-09T05:58:47;12.53;;;3.23;;
13238;SDS011;6686;51.292;4.166;2022-09-09T06:01:34;5.73;;;2.57;;
13238;SDS011;6686;51.292;4.166;2022-09-09T06:04:18;4.93;;;2.60;;
13238;SDS011;6686;51.292;4.166;2022-09-09T06:07:04;7.70;;;3.10;;
13238;SDS011;6686;51.292;4.166;2022-09-09T06:09:50;8.70;;;2.83;;
13238;SDS011;6686;51.292;4.166;2022-09-09T06:12:36;10.30;;;2.90;;
13238;SDS011;6686;51.292;4.166;2022-09-09T06:15:22;10.80;;;2.80;;
13238;SDS011;6686;51.292;4.166;2022-09-09T06:18:08;10.50;;;2.70;;
13238;SDS011;6686;51.292;4.166;2022-09-09T06:20:57;10.90;;;3.22;;
13238;SDS011;6686;51.292;4.166;2022-09-09T06:23:43;7.83;;;2.40;;
13238;SDS011;6686;51.292;4.166;2022-09-09T06:26:34;9.07;;;2.87;;
13238;SDS011;6686;51.292;4.166;2022-09-09T06:29:19;7.57;;;3.00;;
13238;SDS011;6686;51.292;4.166;2022-09-09T06:32:04;6.17;;;2.67;;
13238;SDS011;6686;51.292;4.166;2022-09-09T06:34:50;13.57;;;3.30;;
13238;SDS011;6686;51.292;4.166;2022-09-09T06:37:36;10.50;;;2.47;;
13238;SDS011;6686;51.292;4.166;2022-09-09T06:40:22;8.23;;;2.97;;
13238;SDS011;6686;51.292;4.166;2022-09-09T06:43:08;7.40;;;2.50;;
13238;SDS011;6686;51.292;4.166;2022-09-09T06:46:01;8.23;;;2.60;;
13238;SDS011;6686;51.292;4.166;2022-09-09T06:48:46;10.90;;;2.77;;
13238;SDS011;6686;51.292;4.166;2022-09-09T06:51:33;13.20;;;3.37;;
13238;SDS011;6686;51.292;4.166;2022-09-09T06:54:17;6.37;;;2.53;;
13238;SDS011;6686;51.292;4.166;2022-09-09T06:57:03;11.07;;;3.23;;
13238;SDS011;6686;51.292;4.166;2022-09-09T06:59:49;9.43;;;2.90;;
13238;SDS011;6686;51.292;4.166;2022-09-09T07:02:35;6.73;;;2.77;;
13238;SDS011;6686;51.292;4.166;2022-09-09T07:05:21;5.93;;;2.23;;
13238;SDS011;6686;51.292;4.166;2022-09-09T07:08:07;5.33;;;2.60;;
13238;SDS011;6686;51.292;4.166;2022-09-09T07:10:53;7.53;;;2.43;;
13238;SDS011;6686;51.292;4.166;2022-09-09T07:13:39;7.00;;;2.70;;
13238;SDS011;6686;51.292;4.166;2022-09-09T07:16:25;10.53;;;2.73;;
13238;SDS011;6686;51.292;4.166;2022-09-09T07:19:11;9.73;;;2.90;;
13238;SDS011;6686;51.292;4.166;2022-09-09T07:21:57;6.83;;;3.33;;
13238;SDS011;6686;51.292;4.166;2022-09-09T07:24:43;11.10;;;2.73;;
13238;SDS011;6686;51.292;4.166;2022-09-09T07:27:29;8.70;;;2.60;;
13238;SDS011;6686;51.292;4.166;2022-09-09T07:30:14;8.47;;;2.90;;
13238;SDS011;6686;51.292;4.166;2022-09-09T07:33:00;9.87;;;2.30;;
13238;SDS011;6686;51.292;4.166;2022-09-09T07:35:46;7.70;;;2.77;;
13238;SDS011;6686;51.292;4.166;2022-09-09T07:38:37;5.83;;;2.23;;
13238;SDS011;6686;51.292;4.166;2022-09-09T07:41:22;9.53;;;2.40;;
13238;SDS011;6686;51.292;4.166;2022-09-09T07:44:21;9.83;;;3.00;;
13238;SDS011;6686;51.292;4.166;2022-09-09T07:47:08;6.47;;;2.37;;
13238;SDS011;6686;51.292;4.166;2022-09-09T07:49:54;11.03;;;2.83;;
13238;SDS011;6686;51.292;4.166;2022-09-09T07:52:40;7.57;;;2.20;;
13238;SDS011;6686;51.292;4.166;2022-09-09T07:55:25;7.63;;;2.63;;
13238;SDS011;6686;51.292;4.166;2022-09-09T07:58:11;6.20;;;2.50;;
13238;SDS011;6686;51.292;4.166;2022-09-09T08:00:57;9.60;;;2.50;;
13238;SDS011;6686;51.292;4.166;2022-09-09T08:03:43;7.18;;;2.40;;
13238;SDS011;6686;51.292;4.166;2022-09-09T08:06:30;9.00;;;2.67;;
13238;SDS011;6686;51.292;4.166;2022-09-09T08:09:15;7.30;;;2.27;;
13238;SDS011;6686;51.292;4.166;2022-09-09T08:12:01;6.03;;;2.47;;
13238;SDS011;6686;51.292;4.166;2022-09-09T08:14:47;6.83;;;2.37;;
13238;SDS011;6686;51.292;4.166;2022-09-09T08:17:33;7.83;;;2.73;;
13238;SDS011;6686;51.292;4.166;2022-09-09T08:20:18;4.55;;;2.40;;
13238;SDS011;6686;51.292;4.166;2022-09-09T08:23:04;8.73;;;2.35;;
13238;SDS011;6686;51.292;4.166;2022-09-09T08:25:51;6.50;;;2.53;;
13238;SDS011;6686;51.292;4.166;2022-09-09T08:28:36;4.87;;;2.50;;
13238;SDS011;6686;51.292;4.166;2022-09-09T08:31:24;10.33;;;2.57;;
13238;SDS011;6686;51.292;4.166;2022-09-09T08:34:14;8.50;;;2.43;;
13238;SDS011;6686;51.292;4.166;2022-09-09T08:37:12;6.07;;;2.13;;
13238;SDS011;6686;51.292;4.166;2022-09-09T08:39:58;11.32;;;2.80;;
13238;SDS011;6686;51.292;4.166;2022-09-09T08:42:47;6.53;;;2.27;;
13238;SDS011;6686;51.292;4.166;2022-09-09T08:45:34;5.90;;;2.40;;
13238;SDS011;6686;51.292;4.166;2022-09-09T08:48:22;7.83;;;3.20;;
13238;SDS011;6686;51.292;4.166;2022-09-09T08:51:04;8.20;;;2.60;;
13238;SDS011;6686;51.292;4.166;2022-09-09T08:53:50;5.70;;;2.60;;
13238;SDS011;6686;51.292;4.166;2022-09-09T08:56:36;6.17;;;2.43;;
13238;SDS011;6686;51.292;4.166;2022-09-09T08:59:22;5.10;;;2.30;;
13238;SDS011;6686;51.292;4.166;2022-09-09T09:02:13;5.60;;;2.27;;
13238;SDS011;6686;51.292;4.166;2022-09-09T09:04:59;6.65;;;2.37;;
13238;SDS011;6686;51.292;4.166;2022-09-09T09:07:52;5.57;;;2.07;;
13238;SDS011;6686;51.292;4.166;2022-09-09T09:10:47;5.70;;;2.30;;
13238;SDS011;6686;51.292;4.166;2022-09-09T09:13:34;10.43;;;2.30;;
13238;SDS011;6686;51.292;4.166;2022-09-09T09:19:22;7.28;;;2.58;;
13238;SDS011;6686;51.292;4.166;2022-09-09T09:31:06;7.73;;;2.27;;
13238;SDS011;6686;51.292;4.166;2022-09-09T09:33:51;5.43;;;2.07;;
13238;SDS011;6686;51.292;4.166;2022-09-09T09:36:52;7.30;;;2.43;;
13238;SDS011;6686;51.292;4.166;2022-09-09T09:39:37;8.87;;;2.20;;
13238;SDS011;6686;51.292;4.166;2022-09-09T09:42:23;5.00;;;2.37;;
13238;SDS011;6686;51.292;4.166;2022-09-09T09:45:29;6.20;;;2.37;;
13238;SDS011;6686;51.292;4.166;2022-09-09T09:48:14;5.37;;;2.17;;
13238;SDS011;6686;51.292;4.166;2022-09-09T09:53:47;3.47;;;2.03;;
13238;SDS011;6686;51.292;4.166;2022-09-09T09:56:33;6.47;;;2.10;;
13238;SDS011;6686;51.292;4.166;2022-09-09T09:59:38;6.00;;;2.33;;
13238;SDS011;6686;51.292;4.166;2022-09-09T10:02:21;6.20;;;2.40;;
13238;SDS011;6686;51.292;4.166;2022-09-09T10:05:12;5.37;;;2.10;;
13238;SDS011;6686;51.292;4.166;2022-09-09T10:08:05;5.70;;;2.80;;
13238;SDS011;6686;51.292;4.166;2022-09-09T10:14:05;5.33;;;2.30;;
13238;SDS011;6686;51.292;4.166;2022-09-09T10:16:59;6.70;;;2.57;;
13238;SDS011;6686;51.292;4.166;2022-09-09T10:19:42;4.13;;;2.00;;
13238;SDS011;6686;51.292;4.166;2022-09-09T10:22:28;3.73;;;1.90;;
13238;SDS011;6686;51.292;4.166;2022-09-09T10:25:20;6.27;;;1.90;;
13238;SDS011;6686;51.292;4.166;2022-09-09T10:28:17;6.50;;;2.00;;
13238;SDS011;6686;51.292;4.166;2022-09-09T10:31:12;3.27;;;1.90;;
13238;SDS011;6686;51.292;4.166;2022-09-09T10:34:17;5.73;;;1.87;;
13238;SDS011;6686;51.292;4.166;2022-09-09T10:37:20;6.27;;;2.23;;
13238;SDS011;6686;51.292;4.166;2022-09-09T10:43:39;6.70;;;2.60;;
13238;SDS011;6686;51.292;4.166;2022-09-09T10:55:51;9.53;;;2.33;;
13238;SDS011;6686;51.292;4.166;2022-09-09T10:58:38;2.50;;;2.00;;
13238;SDS011;6686;51.292;4.166;2022-09-09T11:01:25;4.62;;;1.77;;
13238;SDS011;6686;51.292;4.166;2022-09-09T11:04:17;5.20;;;2.13;;
13238;SDS011;6686;51.292;4.166;2022-09-09T11:07:05;4.27;;;1.53;;
13238;SDS011;6686;51.292;4.166;2022-09-09T11:09:49;4.30;;;1.90;;
13238;SDS011;6686;51.292;4.166;2022-09-09T11:12:35;4.00;;;1.60;;
13238;SDS011;6686;51.292;4.166;2022-09-09T11:15:22;3.30;;;1.70;;
13238;SDS011;6686;51.292;4.166;2022-09-09T11:18:07;5.20;;;1.53;;
13238;SDS011;6686;51.292;4.166;2022-09-09T11:20:54;3.50;;;1.30;;
13238;SDS011;6686;51.292;4.166;2022-09-09T11:23:39;8.07;;;2.30;;
13238;SDS011;6686;51.292;4.166;2022-09-09T11:26:35;2.70;;;1.70;;
13238;SDS011;6686;51.292;4.166;2022-09-09T11:32:33;3.50;;;1.70;;
13238;SDS011;6686;51.292;4.166;2022-09-09T11:35:38;5.93;;;2.27;;
13238;SDS011;6686;51.292;4.166;2022-09-09T11:38:27;6.60;;;2.00;;
13238;SDS011;6686;51.292;4.166;2022-09-09T11:41:13;2.27;;;1.70;;
13238;SDS011;6686;51.292;4.166;2022-09-09T11:43:58;3.07;;;1.80;;
13238;SDS011;6686;51.292;4.166;2022-09-09T11:46:44;5.67;;;1.90;;
13238;SDS011;6686;51.292;4.166;2022-09-09T11:49:39;1.80;;;1.43;;
13238;SDS011;6686;51.292;4.166;2022-09-09T11:52:22;3.10;;;1.90;;
13238;SDS011;6686;51.292;4.166;2022-09-09T11:55:27;3.33;;;1.90;;
13238;SDS011;6686;51.292;4.166;2022-09-09T12:00:58;5.00;;;1.70;;
13238;SDS011;6686;51.292;4.166;2022-09-09T12:03:48;4.73;;;1.57;;
13238;SDS011;6686;51.292;4.166;2022-09-09T12:06:41;3.30;;;1.50;;
13238;SDS011;6686;51.292;4.166;2022-09-09T12:09:21;3.27;;;1.40;;
13238;SDS011;6686;51.292;4.166;2022-09-09T12:17:49;2.37;;;1.47;;
13238;SDS011;6686;51.292;4.166;2022-09-09T12:20:38;5.13;;;1.50;;
13238;SDS011;6686;51.292;4.166;2022-09-09T12:23:30;3.77;;;1.60;;
13238;SDS011;6686;51.292;4.166;2022-09-09T12:29:05;3.00;;;1.70;;
13238;SDS011;6686;51.292;4.166;2022-09-09T12:34:55;1.97;;;1.37;;
13238;SDS011;6686;51.292;4.166;2022-09-09T12:38:01;2.67;;;1.30;;
13238;SDS011;6686;51.292;4.166;2022-09-09T12:40:57;3.87;;;1.43;;
13238;SDS011;6686;51.292;4.166;2022-09-09T12:43:39;4.57;;;1.53;;
13238;SDS011;6686;51.292;4.166;2022-09-09T12:46:31;1.77;;;1.43;;
13238;SDS011;6686;51.292;4.166;2022-09-09T12:49:36;3.67;;;1.40;;
13238;SDS011;6686;51.292;4.166;2022-09-09T12:52:26;4.93;;;1.40;;
13238;SDS011;6686;51.292;4.166;2022-09-09T12:55:16;5.05;;;1.95;;
13238;SDS011;6686;51.292;4.166;2022-09-09T12:57:58;4.90;;;1.67;;
13238;SDS011;6686;51.292;4.166;2022-09-09T13:00:54;6.87;;;1.90;;
13238;SDS011;6686;51.292;4.166;2022-09-09T13:03:42;5.30;;;1.50;;
13238;SDS011;6686;51.292;4.166;2022-09-09T13:06:29;2.83;;;1.63;;
13238;SDS011;6686;51.292;4.166;2022-09-09T13:09:14;2.77;;;1.53;;
13238;SDS011;6686;51.292;4.166;2022-09-09T13:12:00;2.67;;;1.70;;
13238;SDS011;6686;51.292;4.166;2022-09-09T13:14:46;2.60;;;1.63;;
13238;SDS011;6686;51.292;4.166;2022-09-09T13:17:37;5.03;;;1.53;;
13238;SDS011;6686;51.292;4.166;2022-09-09T13:20:24;3.33;;;1.67;;
13238;SDS011;6686;51.292;4.166;2022-09-09T13:23:10;6.30;;;2.40;;
13238;SDS011;6686;51.292;4.166;2022-09-09T13:25:56;5.83;;;2.93;;
13238;SDS011;6686;51.292;4.166;2022-09-09T13:28:42;5.87;;;2.10;;
13238;SDS011;6686;51.292;4.166;2022-09-09T13:31:28;6.00;;;2.30;;
13238;SDS011;6686;51.292;4.166;2022-09-09T13:34:27;3.23;;;1.90;;
13238;SDS011;6686;51.292;4.166;2022-09-09T13:37:21;3.37;;;2.10;;
13238;SDS011;6686;51.292;4.166;2022-09-09T13:40:03;5.13;;;2.07;;
13238;SDS011;6686;51.292;4.166;2022-09-09T13:42:53;2.87;;;1.97;;
13238;SDS011;6686;51.292;4.166;2022-09-09T13:45:38;4.57;;;2.45;;
13238;SDS011;6686;51.292;4.166;2022-09-09T13:48:24;4.57;;;2.57;;
13238;SDS011;6686;51.292;4.166;2022-09-09T13:54:15;6.00;;;2.87;;
13238;SDS011;6686;51.292;4.166;2022-09-09T13:57:01;5.87;;;2.90;;
13238;SDS011;6686;51.292;4.166;2022-09-09T13:59:47;3.40;;;2.57;;
13238;SDS011;6686;51.292;4.166;2022-09-09T14:02:33;4.97;;;2.80;;
13238;SDS011;6686;51.292;4.166;2022-09-09T14:05:19;4.60;;;2.90;;
13238;SDS011;6686;51.292;4.166;2022-09-09T14:08:05;4.53;;;3.10;;
13238;SDS011;6686;51.292;4.166;2022-09-09T14:10:51;6.07;;;3.07;;
13238;SDS011;6686;51.292;4.166;2022-09-09T14:13:37;4.37;;;2.90;;
13238;SDS011;6686;51.292;4.166;2022-09-09T14:16:22;6.45;;;3.15;;
13238;SDS011;6686;51.292;4.166;2022-09-09T14:19:08;7.67;;;3.73;;
13238;SDS011;6686;51.292;4.166;2022-09-09T14:21:54;6.10;;;3.47;;
13238;SDS011;6686;51.292;4.166;2022-09-09T14:24:40;4.20;;;2.77;;
13238;SDS011;6686;51.292;4.166;2022-09-09T14:27:26;3.80;;;1.97;;
13238;SDS011;6686;51.292;4.166;2022-09-09T14:30:12;4.63;;;2.23;;
13238;SDS011;6686;51.292;4.166;2022-09-09T14:32:58;4.53;;;2.13;;
13238;SDS011;6686;51.292;4.166;2022-09-09T14:35:44;3.43;;;2.33;;
13238;SDS011;6686;51.292;4.166;2022-09-09T14:38:31;4.60;;;2.30;;
13238;SDS011;6686;51.292;4.166;2022-09-09T14:41:17;2.47;;;2.03;;
13238;SDS011;6686;51.292;4.166;2022-09-09T14:44:01;3.27;;;2.43;;
13238;SDS011;6686;51.292;4.166;2022-09-09T14:46:55;4.27;;;2.53;;
13238;SDS011;6686;51.292;4.166;2022-09-09T14:49:36;4.87;;;2.37;;
13238;SDS011;6686;51.292;4.166;2022-09-09T14:52:22;2.73;;;1.70;;
13238;SDS011;6686;51.292;4.166;2022-09-09T14:55:08;2.53;;;1.80;;
13238;SDS011;6686;51.292;4.166;2022-09-09T14:57:57;3.87;;;1.63;;
13238;SDS011;6686;51.292;4.166;2022-09-09T15:00:40;1.73;;;1.63;;
13238;SDS011;6686;51.292;4.166;2022-09-09T15:03:25;2.77;;;1.67;;
13238;SDS011;6686;51.292;4.166;2022-09-09T15:06:14;3.73;;;1.90;;
13238;SDS011;6686;51.292;4.166;2022-09-09T15:09:03;3.83;;;2.27;;
13238;SDS011;6686;51.292;4.166;2022-09-09T15:11:46;3.83;;;2.10;;
13238;SDS011;6686;51.292;4.166;2022-09-09T15:14:32;3.08;;;2.25;;
13238;SDS011;6686;51.292;4.166;2022-09-09T15:17:18;3.20;;;2.67;;
13238;SDS011;6686;51.292;4.166;2022-09-09T15:20:04;4.80;;;2.30;;
13238;SDS011;6686;51.292;4.166;2022-09-09T15:22:50;4.67;;;2.60;;
13238;SDS011;6686;51.292;4.166;2022-09-09T15:25:35;3.72;;;2.75;;
13238;SDS011;6686;51.292;4.166;2022-09-09T15:28:21;2.70;;;2.50;;
13238;SDS011;6686;51.292;4.166;2022-09-09T15:31:09;5.63;;;2.57;;
13238;SDS011;6686;51.292;4.166;2022-09-09T15:33:54;4.23;;;2.50;;
13238;SDS011;6686;51.292;4.166;2022-09-09T15:36:40;6.33;;;2.20;;
13238;SDS011;6686;51.292;4.166;2022-09-09T15:39:25;4.10;;;2.17;;
13238;SDS011;6686;51.292;4.166;2022-09-09T15:42:11;4.33;;;2.30;;
13238;SDS011;6686;51.292;4.166;2022-09-09T15:44:56;4.33;;;2.20;;
13238;SDS011;6686;51.292;4.166;2022-09-09T15:47:42;3.33;;;2.40;;
13238;SDS011;6686;51.292;4.166;2022-09-09T15:50:28;4.43;;;2.30;;
13238;SDS011;6686;51.292;4.166;2022-09-09T15:53:14;2.93;;;2.00;;
13238;SDS011;6686;51.292;4.166;2022-09-09T15:56:00;3.33;;;2.03;;
13238;SDS011;6686;51.292;4.166;2022-09-09T15:58:46;2.97;;;2.30;;
13238;SDS011;6686;51.292;4.166;2022-09-09T16:01:33;4.20;;;2.20;;
13238;SDS011;6686;51.292;4.166;2022-09-09T16:04:18;4.30;;;2.20;;
13238;SDS011;6686;51.292;4.166;2022-09-09T16:07:05;4.18;;;2.25;;
13238;SDS011;6686;51.292;4.166;2022-09-09T16:09:50;4.87;;;1.97;;
13238;SDS011;6686;51.292;4.166;2022-09-09T16:12:36;3.63;;;2.10;;
13238;SDS011;6686;51.292;4.166;2022-09-09T16:15:22;4.15;;;2.60;;
13238;SDS011;6686;51.292;4.166;2022-09-09T16:18:08;5.60;;;2.87;;
13238;SDS011;6686;51.292;4.166;2022-09-09T16:20:54;4.97;;;2.90;;
13238;SDS011;6686;51.292;4.166;2022-09-09T16:23:40;8.00;;;2.60;;
13238;SDS011;6686;51.292;4.166;2022-09-09T16:26:26;4.97;;;2.80;;
13238;SDS011;6686;51.292;4.166;2022-09-09T16:29:12;3.77;;;2.57;;
13238;SDS011;6686;51.292;4.166;2022-09-09T16:31:58;5.27;;;2.60;;
13238;SDS011;6686;51.292;4.166;2022-09-09T16:34:44;5.90;;;2.40;;
13238;SDS011;6686;51.292;4.166;2022-09-09T16:37:30;6.57;;;2.97;;
13238;SDS011;6686;51.292;4.166;2022-09-09T16:40:16;4.37;;;2.20;;
13238;SDS011;6686;51.292;4.166;2022-09-09T16:43:02;5.20;;;2.20;;
13238;SDS011;6686;51.292;4.166;2022-09-09T16:45:52;2.90;;;2.00;;
13238;SDS011;6686;51.292;4.166;2022-09-09T16:48:38;3.80;;;2.10;;
13238;SDS011;6686;51.292;4.166;2022-09-09T16:51:28;3.83;;;2.10;;
13238;SDS011;6686;51.292;4.166;2022-09-09T16:54:10;2.10;;;1.90;;
13238;SDS011;6686;51.292;4.166;2022-09-09T16:56:56;4.07;;;2.60;;
13238;SDS011;6686;51.292;4.166;2022-09-09T16:59:45;3.57;;;2.40;;
13238;SDS011;6686;51.292;4.166;2022-09-09T17:02:31;3.97;;;2.85;;
13238;SDS011;6686;51.292;4.166;2022-09-09T17:05:19;5.57;;;2.43;;
13238;SDS011;6686;51.292;4.166;2022-09-09T17:08:06;3.50;;;2.30;;
13238;SDS011;6686;51.292;4.166;2022-09-09T17:10:52;5.70;;;2.27;;
13238;SDS011;6686;51.292;4.166;2022-09-09T17:13:38;3.37;;;2.10;;
13238;SDS011;6686;51.292;4.166;2022-09-09T17:16:25;2.93;;;2.33;;
13238;SDS011;6686;51.292;4.166;2022-09-09T17:19:10;3.17;;;2.10;;
13238;SDS011;6686;51.292;4.166;2022-09-09T17:21:55;3.17;;;2.40;;
13238;SDS011;6686;51.292;4.166;2022-09-09T17:24:44;4.93;;;2.27;;
13238;SDS011;6686;51.292;4.166;2022-09-09T17:27:30;5.20;;;2.60;;
13238;SDS011;6686;51.292;4.166;2022-09-09T17:30:16;3.27;;;2.57;;
13238;SDS011;6686;51.292;4.166;2022-09-09T17:33:05;2.73;;;2.20;;
13238;SDS011;6686;51.292;4.166;2022-09-09T17:35:51;4.47;;;2.47;;
13238;SDS011;6686;51.292;4.166;2022-09-09T17:38:38;6.17;;;3.37;;
13238;SDS011;6686;51.292;4.166;2022-09-09T17:41:25;4.40;;;3.10;;
13238;SDS011;6686;51.292;4.166;2022-09-09T17:44:10;3.20;;;2.90;;
13238;SDS011;6686;51.292;4.166;2022-09-09T17:46:56;5.93;;;3.23;;
13238;SDS011;6686;51.292;4.166;2022-09-09T17:49:41;4.90;;;3.75;;
13238;SDS011;6686;51.292;4.166;2022-09-09T17:52:28;4.72;;;3.55;;
13238;SDS011;6686;51.292;4.166;2022-09-09T17:55:14;4.50;;;3.50;;
13238;SDS011;6686;51.292;4.166;2022-09-09T17:57:59;4.00;;;3.50;;
13238;SDS011;6686;51.292;4.166;2022-09-09T18:00:45;4.75;;;3.95;;
13238;SDS011;6686;51.292;4.166;2022-09-09T18:03:41;5.80;;;4.12;;
13238;SDS011;6686;51.292;4.166;2022-09-09T18:06:21;6.70;;;3.40;;
13238;SDS011;6686;51.292;4.166;2022-09-09T18:09:07;6.40;;;3.53;;
13238;SDS011;6686;51.292;4.166;2022-09-09T18:11:52;5.73;;;3.30;;
13238;SDS011;6686;51.292;4.166;2022-09-09T18:14:37;4.43;;;3.23;;
13238;SDS011;6686;51.292;4.166;2022-09-09T18:17:23;7.17;;;3.77;;
13238;SDS011;6686;51.292;4.166;2022-09-09T18:20:09;7.40;;;4.63;;
13238;SDS011;6686;51.292;4.166;2022-09-09T18:22:57;4.37;;;3.50;;
13238;SDS011;6686;51.292;4.166;2022-09-09T18:25:43;6.53;;;4.00;;
13238;SDS011;6686;51.292;4.166;2022-09-09T18:28:29;6.97;;;5.55;;
13238;SDS011;6686;51.292;4.166;2022-09-09T18:31:16;8.77;;;5.60;;
13238;SDS011;6686;51.292;4.166;2022-09-09T18:34:02;8.90;;;5.60;;
13238;SDS011;6686;51.292;4.166;2022-09-09T18:36:49;9.73;;;5.67;;
13238;SDS011;6686;51.292;4.166;2022-09-09T18:39:34;9.20;;;5.73;;